createdAt,value
2023-05-04T00:01:28.298Z,11.20
2023-05-04T00:03:56.795Z,11.20
2023-05-04T00:06:26.711Z,11.10
2023-05-04T00:08:54.805Z,11.10
2023-05-04T00:11:23.238Z,11.10
2023-05-04T00:13:51.271Z,11.10
2023-05-04T00:16:19.453Z,11.10
2023-05-04T00:18:47.603Z,11.10
2023-05-04T00:21:15.888Z,11.00
2023-05-04T00:23:45.474Z,11.00
2023-05-04T00:26:13.786Z,11.00
2023-05-04T00:28:41.846Z,11.00
2023-05-04T00:31:10.233Z,11.00
2023-05-04T00:33:38.494Z,10.90
2023-05-04T00:36:07.311Z,10.90
2023-05-04T00:38:50.046Z,10.80
2023-05-04T00:41:18.714Z,10.70
2023-05-04T00:43:47.538Z,10.70
2023-05-04T00:46:16.447Z,10.70
2023-05-04T00:48:45.728Z,10.50
2023-05-04T00:51:15.964Z,10.40
2023-05-04T00:53:44.556Z,10.30
2023-05-04T00:56:15.198Z,10.40
2023-05-04T00:58:43.870Z,10.20
2023-05-04T01:01:12.172Z,10.20
2023-05-04T01:03:40.543Z,10.20
2023-05-04T01:06:17.906Z,10.20
2023-05-04T01:08:52.958Z,10.20
2023-05-04T01:11:28.632Z,10.20
2023-05-04T01:13:58.159Z,10.20
2023-05-04T01:16:26.313Z,10.20
2023-05-04T01:18:54.730Z,10.20
2023-05-04T01:21:23.048Z,10.20
2023-05-04T01:23:52.653Z,10.10
2023-05-04T01:26:25.755Z,10.10
2023-05-04T01:29:01.965Z,10.20
2023-05-04T01:31:30.716Z,10.10
2023-05-04T01:33:59.695Z,10.10
2023-05-04T01:36:28.160Z,10.10
2023-05-04T01:38:59.659Z,10.10
2023-05-04T01:41:28.080Z,10.00
2023-05-04T01:43:56.280Z,10.00
2023-05-04T01:46:24.780Z,10.00
2023-05-04T01:48:53.256Z,9.90
2023-05-04T01:51:21.527Z,10.10
2023-05-04T01:53:49.819Z,9.90
2023-05-04T01:56:19.994Z,9.90
2023-05-04T01:58:48.385Z,9.90
2023-05-04T02:01:16.668Z,9.90
2023-05-04T02:03:45.624Z,9.90
2023-05-04T02:06:14.048Z,9.80
2023-05-04T02:08:42.960Z,9.80
2023-05-04T02:11:11.347Z,9.80
2023-05-04T02:13:41.362Z,9.70
2023-05-04T02:16:10.258Z,9.60
2023-05-04T02:18:38.550Z,9.50
2023-05-04T02:21:06.646Z,9.50
2023-05-04T02:23:34.716Z,9.50
2023-05-04T02:26:02.970Z,9.40
2023-05-04T02:28:31.465Z,9.40
2023-05-04T02:31:01.811Z,9.50
2023-05-04T02:33:30.127Z,9.40
2023-05-04T02:35:58.621Z,9.40
2023-05-04T02:38:28.281Z,9.40
2023-05-04T02:40:58.897Z,9.50
2023-05-04T02:43:27.416Z,9.50
2023-05-04T02:45:55.919Z,9.40
2023-05-04T02:48:26.394Z,9.50
2023-05-04T02:50:55.084Z,9.50
2023-05-04T02:53:23.528Z,9.40
2023-05-04T02:55:52.074Z,9.30
2023-05-04T02:58:20.786Z,9.30
2023-05-04T03:00:49.258Z,9.30
2023-05-04T03:03:17.950Z,9.30
2023-05-04T03:05:47.483Z,9.30
2023-05-04T03:08:15.964Z,9.20
2023-05-04T03:10:43.937Z,9.30
2023-05-04T03:13:12.306Z,9.30
2023-05-04T03:15:41.008Z,9.30
2023-05-04T03:18:09.440Z,9.30
2023-05-04T03:20:37.945Z,9.30
2023-05-04T03:23:07.514Z,9.30
2023-05-04T03:25:36.006Z,9.30
2023-05-04T03:28:04.236Z,9.30
2023-05-04T03:30:32.384Z,9.30
2023-05-04T03:33:01.495Z,9.40
2023-05-04T03:35:29.910Z,9.40
2023-05-04T03:37:57.968Z,9.50
2023-05-04T03:40:27.511Z,9.50
2023-05-04T03:42:55.561Z,9.50
2023-05-04T03:45:24.012Z,9.50
2023-05-04T03:47:52.231Z,9.50
2023-05-04T03:50:21.484Z,9.60
2023-05-04T03:52:49.644Z,9.50
2023-05-04T03:55:17.768Z,9.50
2023-05-04T03:57:47.395Z,9.40
2023-05-04T04:00:16.669Z,9.50
2023-05-04T04:02:44.943Z,9.50
2023-05-04T04:05:13.154Z,9.50
2023-05-04T04:07:41.475Z,9.60
2023-05-04T04:10:12.814Z,9.70
2023-05-04T04:12:41.313Z,10.00
2023-05-04T04:15:11.962Z,10.70
2023-05-04T04:17:40.085Z,11.00
2023-05-04T04:20:09.972Z,11.30
2023-05-04T04:22:38.155Z,11.60
2023-05-04T04:25:06.600Z,12.10
2023-05-04T04:27:34.796Z,12.50
2023-05-04T04:30:04.475Z,13.10
2023-05-04T04:32:34.217Z,13.60
2023-05-04T04:35:02.202Z,14.00
2023-05-04T04:37:30.502Z,14.10
2023-05-04T04:39:58.626Z,14.10
2023-05-04T04:42:26.866Z,14.40
2023-05-04T04:44:55.215Z,14.30
2023-05-04T04:47:23.561Z,14.10
2023-05-04T04:49:53.166Z,14.20
2023-05-04T04:52:21.831Z,14.30
2023-05-04T04:54:52.357Z,14.60
2023-05-04T04:57:20.982Z,14.90
2023-05-04T04:59:49.217Z,15.10
2023-05-04T05:02:17.436Z,15.30
2023-05-04T05:04:45.740Z,15.60
2023-05-04T05:07:15.406Z,16.00
2023-05-04T05:09:43.892Z,16.50
2023-05-04T05:12:12.140Z,16.90
2023-05-04T05:14:40.315Z,17.10
2023-05-04T05:17:10.268Z,17.10
2023-05-04T05:19:45.598Z,17.10
2023-05-04T05:22:15.215Z,17.70
2023-05-04T05:24:43.356Z,18.20
2023-05-04T05:27:11.296Z,18.50
2023-05-04T05:29:39.808Z,18.80
2023-05-04T05:32:08.108Z,19.10
2023-05-04T05:34:38.923Z,19.40
2023-05-04T05:37:06.985Z,19.40
2023-05-04T05:39:39.150Z,19.70
2023-05-04T05:42:07.336Z,20.20
2023-05-04T05:44:37.471Z,20.40
2023-05-04T05:47:05.937Z,20.50
2023-05-04T05:49:33.965Z,20.30
2023-05-04T05:52:02.227Z,20.00
2023-05-04T05:54:32.114Z,19.90
2023-05-04T05:57:02.404Z,20.00
2023-05-04T05:59:33.586Z,20.70
2023-05-04T06:04:51.481Z,21.10
2023-05-04T06:07:21.793Z,21.80
2023-05-04T06:09:52.749Z,22.10
2023-05-04T06:12:22.656Z,22.60
2023-05-04T06:14:50.812Z,22.60
2023-05-04T06:17:19.173Z,22.90
2023-05-04T06:19:50.761Z,23.10
2023-05-04T06:22:18.877Z,23.60
2023-05-04T06:24:48.844Z,23.90
2023-05-04T06:27:17.403Z,24.20
2023-05-04T06:29:46.838Z,24.70
2023-05-04T06:32:14.914Z,24.80
2023-05-04T06:34:42.962Z,24.60
2023-05-04T06:37:13.495Z,24.90
2023-05-04T06:39:42.019Z,25.10
2023-05-04T06:42:10.108Z,25.60
2023-05-04T06:44:39.569Z,25.90
2023-05-04T06:47:09.231Z,26.20
2023-05-04T06:49:37.416Z,26.50
2023-05-04T06:52:06.182Z,26.40
2023-05-04T06:54:34.584Z,26.20
2023-05-04T06:57:05.094Z,26.00
2023-05-04T06:59:33.471Z,26.10
2023-05-04T07:02:02.257Z,26.50
2023-05-04T07:04:33.164Z,26.50
2023-05-04T07:07:01.953Z,26.50
2023-05-04T07:09:30.734Z,26.80
2023-05-04T07:11:58.930Z,27.30
2023-05-04T07:14:27.231Z,28.00
2023-05-04T07:16:56.437Z,29.00
2023-05-04T07:19:24.729Z,29.50
2023-05-04T07:21:54.433Z,30.00
2023-05-04T07:24:22.890Z,30.60
2023-05-04T07:26:51.113Z,30.80
2023-05-04T07:29:19.098Z,31.40
2023-05-04T07:31:47.812Z,31.50
2023-05-04T07:34:16.225Z,31.50
2023-05-04T07:36:44.394Z,31.50
2023-05-04T07:39:14.221Z,31.90
2023-05-04T07:41:42.348Z,31.50
2023-05-04T07:44:11.478Z,31.20
2023-05-04T07:46:39.792Z,30.70
2023-05-04T07:49:07.837Z,29.00
2023-05-04T07:51:37.925Z,27.90
2023-05-04T07:54:06.317Z,27.60
2023-05-04T07:56:36.437Z,28.30
2023-05-04T07:59:07.058Z,28.80
2023-05-04T08:01:35.400Z,29.00
2023-05-04T08:04:03.719Z,29.40
2023-05-04T08:06:34.205Z,29.30
2023-05-04T08:09:02.922Z,29.10
2023-05-04T08:11:32.250Z,29.00
2023-05-04T08:14:02.684Z,29.60
2023-05-04T08:16:31.164Z,30.50
2023-05-04T08:19:00.141Z,31.50
2023-05-04T08:21:28.658Z,31.90
2023-05-04T08:23:56.698Z,31.50
2023-05-04T08:26:24.816Z,30.80
2023-05-04T08:28:52.789Z,30.60
2023-05-04T08:31:22.105Z,30.30
2023-05-04T08:33:50.112Z,30.10
2023-05-04T08:36:18.153Z,30.00
2023-05-04T08:38:46.196Z,30.10
2023-05-04T08:41:14.194Z,30.00
2023-05-04T08:43:42.222Z,30.30
2023-05-04T08:46:11.540Z,30.40
2023-05-04T08:48:42.979Z,30.30
2023-05-04T08:51:12.031Z,30.30
2023-05-04T08:53:42.736Z,30.30
2023-05-04T08:56:13.205Z,30.60
2023-05-04T08:58:49.203Z,30.40
2023-05-04T09:01:18.576Z,29.80
2023-05-04T09:03:49.080Z,29.30
2023-05-04T09:06:17.345Z,29.10
2023-05-04T09:08:45.249Z,29.40
2023-05-04T09:11:13.798Z,28.80
2023-05-04T09:13:42.716Z,28.70
2023-05-04T09:16:10.866Z,29.40
2023-05-04T09:18:40.738Z,29.70
2023-05-04T09:21:10.429Z,29.70
2023-05-04T09:23:48.688Z,29.60
2023-05-04T09:26:16.926Z,30.00
2023-05-04T09:28:45.181Z,29.80
2023-05-04T09:31:13.757Z,29.80
2023-05-04T09:33:42.858Z,30.00
2023-05-04T09:36:16.495Z,29.50
2023-05-04T09:38:45.258Z,29.00
2023-05-04T09:41:13.321Z,29.20
2023-05-04T09:43:42.980Z,29.60
2023-05-04T09:46:18.411Z,29.90
2023-05-04T09:48:57.016Z,30.30
2023-05-04T09:51:27.689Z,31.00
2023-05-04T09:53:55.945Z,31.10
2023-05-04T09:56:37.959Z,31.30
2023-05-04T09:59:06.389Z,31.20
2023-05-04T10:01:34.761Z,30.80
2023-05-04T10:04:04.037Z,30.70
2023-05-04T10:06:34.089Z,31.20
2023-05-04T10:09:02.799Z,31.50
2023-05-04T10:11:33.207Z,31.30
2023-05-04T10:14:02.228Z,30.60
2023-05-04T10:16:39.486Z,30.20
2023-05-04T10:19:25.799Z,30.70
2023-05-04T10:22:08.346Z,31.10
2023-05-04T10:25:02.024Z,31.70
2023-05-04T10:27:47.489Z,30.30
2023-05-04T10:30:18.613Z,29.80
2023-05-04T10:32:47.101Z,30.20
2023-05-04T10:35:19.177Z,29.60
2023-05-04T10:37:54.771Z,29.30
2023-05-04T10:40:36.394Z,29.60
2023-05-04T10:43:04.500Z,29.90
2023-05-04T10:45:39.894Z,30.20
2023-05-04T10:48:08.912Z,29.70
2023-05-04T10:50:44.606Z,29.20
2023-05-04T10:53:15.539Z,29.50
2023-05-04T10:55:44.924Z,29.70
2023-05-04T10:58:16.577Z,29.60
2023-05-04T11:00:46.261Z,29.60
2023-05-04T11:03:15.626Z,29.10
2023-05-04T11:05:45.751Z,28.80
2023-05-04T11:08:23.008Z,29.00
2023-05-04T11:11:02.284Z,28.90
2023-05-04T11:13:31.047Z,28.90
2023-05-04T11:15:59.553Z,28.90
2023-05-04T11:18:29.136Z,28.40
2023-05-04T11:20:57.288Z,28.10
2023-05-04T11:23:27.272Z,27.50
2023-05-04T11:25:55.957Z,27.00
2023-05-04T11:28:34.527Z,26.90
2023-05-04T11:31:03.573Z,26.90
2023-05-04T11:33:31.963Z,26.60
2023-05-04T11:36:02.537Z,26.50
2023-05-04T11:38:34.595Z,26.30
2023-05-04T11:41:02.900Z,26.10
2023-05-04T11:43:34.675Z,26.00
2023-05-04T11:46:03.625Z,25.50
2023-05-04T11:48:33.181Z,25.40
2023-05-04T11:51:01.497Z,25.10
2023-05-04T11:53:39.665Z,24.90
2023-05-04T11:56:09.805Z,25.20
2023-05-04T11:58:38.339Z,25.40
2023-05-04T12:01:06.870Z,25.10
2023-05-04T12:03:48.608Z,25.20
2023-05-04T12:06:32.357Z,25.60
2023-05-04T12:09:07.089Z,25.50
2023-05-04T12:11:38.376Z,25.10
2023-05-04T12:14:09.865Z,24.90
2023-05-04T12:16:39.118Z,25.30
2023-05-04T12:19:10.793Z,25.50
2023-05-04T12:21:49.635Z,25.20
2023-05-04T12:24:20.041Z,25.00
2023-05-04T12:26:48.248Z,24.90
2023-05-04T12:29:16.468Z,24.80
2023-05-04T12:31:44.519Z,24.50
2023-05-04T12:34:12.508Z,24.40
2023-05-04T12:36:40.594Z,24.20
2023-05-04T12:39:08.815Z,24.10
2023-05-04T12:41:38.252Z,23.80
2023-05-04T12:44:08.351Z,23.80
2023-05-04T12:46:37.398Z,23.70
2023-05-04T12:49:05.822Z,23.80
2023-05-04T12:51:33.730Z,23.40
2023-05-04T12:54:01.700Z,23.40
2023-05-04T12:56:29.801Z,23.10
2023-05-04T12:58:59.089Z,23.00
2023-05-04T13:01:27.519Z,22.80
2023-05-04T13:03:55.505Z,22.80
2023-05-04T13:06:23.492Z,22.90
2023-05-04T13:08:51.765Z,22.90
2023-05-04T13:11:20.155Z,22.90
2023-05-04T13:13:48.547Z,22.80
2023-05-04T13:16:18.053Z,22.80
2023-05-04T13:18:46.351Z,22.70
2023-05-04T13:21:14.648Z,22.70
2023-05-04T13:23:42.794Z,22.80
2023-05-04T13:27:15.353Z,22.60
2023-05-04T13:29:44.287Z,22.70
2023-05-04T13:32:13.713Z,22.90
2023-05-04T13:34:44.866Z,22.80
2023-05-04T13:37:18.203Z,22.70
2023-05-04T13:39:46.977Z,22.50
2023-05-04T13:42:15.125Z,22.50
2023-05-04T13:44:44.776Z,22.60
2023-05-04T13:47:14.326Z,22.70
2023-05-04T13:49:42.562Z,22.70
2023-05-04T13:52:10.660Z,22.80
2023-05-04T13:54:38.794Z,22.90
2023-05-04T13:57:07.263Z,23.00
2023-05-04T13:59:35.227Z,23.00
2023-05-04T14:02:03.482Z,23.10
2023-05-04T14:04:33.009Z,23.20
2023-05-04T14:07:01.220Z,23.20
2023-05-04T14:09:29.375Z,23.20
2023-05-04T14:11:57.330Z,23.30
2023-05-04T14:14:25.185Z,23.30
2023-05-04T14:16:53.167Z,23.50
2023-05-04T14:19:21.262Z,23.40
2023-05-04T14:21:50.584Z,23.40
2023-05-04T14:24:18.541Z,23.40
2023-05-04T14:26:46.741Z,23.40
2023-05-04T14:29:14.839Z,23.40
2023-05-04T14:31:42.908Z,23.30
2023-05-04T14:34:12.335Z,23.30
2023-05-04T14:36:40.330Z,23.30
2023-05-04T14:39:09.651Z,23.30
2023-05-04T14:41:38.437Z,23.30
2023-05-04T14:44:06.762Z,23.20
2023-05-04T14:46:34.742Z,23.10
2023-05-04T14:49:02.801Z,23.10
2023-05-04T14:51:33.613Z,23.20
2023-05-04T14:54:02.053Z,23.10
2023-05-04T14:56:31.490Z,23.10
2023-05-04T14:59:01.249Z,23.00
2023-05-04T15:01:29.180Z,23.00
2023-05-04T15:03:57.454Z,23.00
2023-05-04T15:06:27.202Z,23.00
2023-05-04T15:08:55.115Z,22.90
2023-05-04T15:11:23.063Z,22.90
2023-05-04T15:13:52.310Z,22.90
2023-05-04T15:16:20.476Z,23.00
2023-05-04T15:18:48.511Z,22.90
2023-05-04T15:21:16.482Z,22.80
2023-05-04T15:23:44.403Z,22.70
2023-05-04T15:26:12.874Z,22.60
2023-05-04T15:28:41.017Z,22.60
2023-05-04T15:31:10.477Z,22.50
2023-05-04T15:33:38.395Z,22.50
2023-05-04T15:36:08.283Z,22.50
2023-05-04T15:38:36.473Z,22.50
2023-05-04T15:41:05.607Z,22.60
2023-05-04T15:43:33.728Z,22.40
2023-05-04T15:46:01.726Z,22.30
2023-05-04T15:48:31.101Z,22.30
2023-05-04T15:50:59.136Z,22.30
2023-05-04T15:53:27.984Z,22.20
2023-05-04T15:55:55.974Z,22.30
2023-05-04T15:58:23.882Z,22.20
2023-05-04T16:00:52.143Z,22.20
2023-05-04T16:03:20.719Z,22.20
2023-05-04T16:05:51.382Z,22.10
2023-05-04T16:08:19.375Z,22.10
2023-05-04T16:10:48.224Z,22.20
2023-05-04T16:13:16.182Z,22.10
2023-05-04T16:15:44.431Z,22.00
2023-05-04T16:18:12.463Z,21.90
2023-05-04T16:20:40.318Z,22.00
2023-05-04T16:23:09.798Z,22.00
2023-05-04T16:25:37.715Z,22.20
2023-05-04T16:28:05.777Z,22.00
2023-05-04T16:30:34.261Z,22.00
2023-05-04T16:33:02.757Z,22.00
2023-05-04T16:35:32.429Z,21.90
2023-05-04T16:38:00.485Z,21.90
2023-05-04T16:40:30.780Z,21.90
2023-05-04T16:42:58.791Z,21.80
2023-05-04T16:45:31.296Z,21.80
2023-05-04T16:47:59.597Z,21.90
2023-05-04T16:50:27.743Z,21.80
2023-05-04T16:52:55.681Z,21.80
2023-05-04T16:55:23.949Z,21.70
2023-05-04T16:57:53.205Z,21.70
2023-05-04T17:00:21.466Z,21.70
2023-05-04T17:02:49.937Z,21.60
2023-05-04T17:05:19.359Z,21.50
2023-05-04T17:07:47.781Z,21.50
2023-05-04T17:10:17.764Z,21.50
2023-05-04T17:12:46.002Z,21.40
2023-05-04T17:15:15.317Z,21.40
2023-05-04T17:17:43.409Z,21.30
2023-05-04T17:20:15.160Z,21.20
2023-05-04T17:22:43.997Z,21.00
2023-05-04T17:25:12.374Z,21.00
2023-05-04T17:27:41.291Z,21.00
2023-05-04T17:30:10.670Z,21.00
2023-05-04T17:32:39.987Z,20.90
2023-05-04T17:35:20.990Z,20.90
2023-05-04T17:37:54.509Z,20.80
2023-05-04T17:40:24.133Z,20.80
2023-05-04T17:42:52.401Z,20.80
2023-05-04T17:45:21.125Z,20.70
2023-05-04T17:47:51.881Z,20.60
2023-05-04T17:50:21.301Z,20.60
2023-05-04T17:52:52.868Z,20.60
2023-05-04T17:55:20.911Z,20.50
2023-05-04T17:57:48.800Z,20.40
2023-05-04T18:00:17.465Z,20.30
2023-05-04T18:02:45.519Z,20.30
2023-05-04T18:05:15.421Z,20.20
2023-05-04T18:07:43.508Z,20.10
2023-05-04T18:10:12.162Z,20.10
2023-05-04T18:12:40.151Z,20.00
2023-05-04T18:15:09.551Z,20.00
2023-05-04T18:17:38.893Z,19.90
2023-05-04T18:20:09.359Z,19.80
2023-05-04T18:22:38.846Z,19.70
2023-05-04T18:25:08.170Z,19.70
2023-05-04T18:27:36.857Z,19.60
2023-05-04T18:30:06.780Z,19.60
2023-05-04T18:32:35.207Z,19.50
2023-05-04T18:35:03.334Z,19.40
2023-05-04T18:37:31.528Z,19.40
2023-05-04T18:40:01.280Z,19.30
2023-05-04T18:42:29.772Z,19.20
2023-05-04T18:44:57.841Z,19.20
2023-05-04T18:47:25.795Z,19.10
2023-05-04T18:49:56.355Z,19.10
2023-05-04T18:52:30.530Z,19.00
2023-05-04T18:54:59.846Z,18.90
2023-05-04T18:57:30.217Z,18.90
2023-05-04T18:59:58.212Z,18.90
2023-05-04T19:02:26.999Z,18.90
2023-05-04T19:04:54.934Z,18.90
2023-05-04T19:07:25.437Z,18.90
2023-05-04T19:09:53.879Z,18.90
2023-05-04T19:12:23.921Z,18.90
2023-05-04T19:14:51.931Z,18.80
2023-05-04T19:17:19.867Z,18.80
2023-05-04T19:19:47.819Z,18.70
2023-05-04T19:22:16.874Z,18.60
2023-05-04T19:24:44.833Z,18.60
2023-05-04T19:27:12.701Z,18.60
2023-05-04T19:29:42.004Z,18.60
2023-05-04T19:32:22.745Z,18.50
2023-05-04T19:34:52.067Z,18.50
2023-05-04T19:37:20.023Z,18.40
2023-05-04T19:39:48.010Z,18.30
2023-05-04T19:42:16.070Z,18.30
2023-05-04T19:44:45.409Z,18.20
2023-05-04T19:47:13.779Z,18.20
2023-05-04T19:49:42.217Z,18.20
2023-05-04T19:52:10.346Z,18.10
2023-05-04T19:54:41.482Z,18.00
2023-05-04T19:57:10.069Z,18.00
2023-05-04T19:59:38.106Z,18.00
2023-05-04T20:02:08.875Z,17.90
2023-05-04T20:04:36.929Z,17.90
2023-05-04T20:07:07.684Z,17.80
2023-05-04T20:09:35.887Z,17.80
2023-05-04T20:12:04.596Z,17.70
2023-05-04T20:14:36.408Z,17.70
2023-05-04T20:17:09.658Z,17.60
2023-05-04T20:19:38.852Z,17.50
2023-05-04T20:22:06.840Z,17.50
2023-05-04T20:24:34.885Z,17.40
2023-05-04T20:27:03.933Z,17.40
2023-05-04T20:29:32.178Z,17.30
2023-05-04T20:32:02.795Z,17.20
2023-05-04T20:34:32.994Z,17.20
2023-05-04T20:37:01.210Z,17.10
2023-05-04T20:39:29.210Z,17.00
2023-05-04T20:41:59.952Z,16.90
2023-05-04T20:44:34.279Z,16.90
2023-05-04T20:47:05.823Z,16.80
2023-05-04T20:49:47.809Z,16.80
2023-05-04T20:52:16.026Z,16.80
2023-05-04T20:54:44.849Z,16.70
2023-05-04T20:57:14.239Z,16.70
2023-05-04T20:59:42.342Z,16.60
2023-05-04T21:02:10.685Z,16.60
2023-05-04T21:04:40.688Z,16.60
2023-05-04T21:07:08.788Z,16.60
2023-05-04T21:09:36.891Z,16.50
2023-05-04T21:12:05.235Z,16.50
2023-05-04T21:14:35.205Z,16.50
2023-05-04T21:17:03.464Z,16.40
2023-05-04T21:19:31.755Z,16.40
2023-05-04T21:22:02.118Z,16.30
2023-05-04T21:24:32.106Z,16.30
2023-05-04T21:27:00.579Z,16.20
2023-05-04T21:29:28.573Z,16.10
2023-05-04T21:31:57.470Z,16.00
2023-05-04T21:34:25.462Z,16.00
2023-05-04T21:36:53.942Z,16.00
2023-05-04T21:39:23.248Z,15.90
2023-05-04T21:41:51.154Z,16.00
2023-05-04T21:44:19.038Z,15.90
2023-05-04T21:46:46.978Z,15.80
2023-05-04T21:49:14.901Z,15.80
2023-05-04T21:51:42.984Z,15.70
2023-05-04T21:54:10.944Z,15.70
2023-05-04T21:56:41.564Z,15.70
2023-05-04T21:59:09.489Z,15.70
2023-05-04T22:01:37.580Z,15.60
2023-05-04T22:04:07.517Z,15.60
2023-05-04T22:06:36.234Z,15.50
2023-05-04T22:09:04.484Z,15.50
2023-05-04T22:11:32.444Z,15.50
2023-05-04T22:14:01.678Z,15.40
2023-05-04T22:16:29.666Z,15.50
2023-05-04T22:18:57.654Z,15.40
2023-05-04T22:21:26.192Z,15.30
2023-05-04T22:23:54.099Z,15.20
2023-05-04T22:26:22.049Z,15.20
2023-05-04T22:28:49.979Z,15.10
2023-05-04T22:31:19.294Z,15.10
2023-05-04T22:33:47.617Z,15.00
2023-05-04T22:36:15.564Z,14.90
2023-05-04T22:38:43.537Z,14.80
2023-05-04T22:41:11.435Z,14.80
2023-05-04T22:43:39.338Z,14.80
2023-05-04T22:46:07.318Z,14.80
2023-05-04T22:48:36.622Z,14.80
2023-05-04T22:51:04.589Z,14.70
2023-05-04T22:53:32.925Z,14.70
2023-05-04T22:56:00.947Z,14.70
2023-05-04T22:58:28.977Z,14.60
2023-05-04T23:00:56.922Z,14.60
2023-05-04T23:03:24.982Z,14.50
2023-05-04T23:05:54.534Z,14.40
2023-05-04T23:08:22.703Z,14.40
2023-05-04T23:10:50.646Z,14.30
2023-05-04T23:13:18.596Z,14.30
2023-05-04T23:15:46.602Z,14.20
2023-05-04T23:18:14.727Z,14.20
2023-05-04T23:20:42.853Z,14.20
2023-05-04T23:23:12.201Z,14.10
2023-05-04T23:25:40.197Z,14.10
2023-05-04T23:28:08.196Z,14.10
2023-05-04T23:30:36.088Z,14.00
2023-05-04T23:33:04.084Z,14.00
2023-05-04T23:35:32.671Z,13.90
2023-05-04T23:38:00.581Z,13.90
2023-05-04T23:40:30.358Z,13.90
2023-05-04T23:42:58.421Z,13.90
2023-05-04T23:45:26.570Z,13.80
2023-05-04T23:47:54.749Z,13.70
2023-05-04T23:50:22.678Z,13.70
2023-05-04T23:52:50.685Z,13.70
2023-05-04T23:55:18.943Z,13.70
2023-05-04T23:57:48.305Z,13.60
